Latest Weather Observations for Liawenee

IDT60801

Issued at 11:02 pm EDT Sunday 4 December 2016 (issued every 30 minutes, with the page automatically refreshed every 10 minutes)

About weather observations | Map of weather stations | Latest weather observations for TAS | Other Formats
Station Details ID: 096033 Name: LIAWENEE Lat: -41.90 Lon: 146.67 Height: 1057.0 m
Data from the previous 72 hours. | See also: Recent months at Liawenee
Date/Time
EDT
Temp
°C
App
Temp
°C
Dew
Point
°C
Rel
Hum
%
Delta-T
°C
Wind Press
QNH
hPa
Press
MSL
hPa
Rain since
9am
mm
Dir  Spd
km/h
Gust
km/h
Spd
kts
Gust
kts
04/11:00pm 11.0 6.9 10.2 95 0.4 N 22 44 12 24 1004.3 1002.7 0.0
04/10:30pm 10.7 6.3 9.1 90 0.8 N 22 39 12 21 1005.4 1003.8 0.0
04/10:00pm 11.3 6.8 9.9 91 0.8 N 24 43 13 23 1006.2 1004.6 0.0
04/09:30pm 11.6 7.6 9.0 84 1.4 NNE 20 33 11 18 1006.2 1004.6 0.0
04/09:00pm 11.9 6.9 8.2 78 1.9 NNE 24 35 13 19 1006.2 1004.6 0.0
04/08:30pm 11.7 6.3 8.2 79 1.8 NNE 26 37 14 20 1006.2 1004.6 0.0
04/08:00pm 12.4 7.3 7.7 73 2.4 N 24 41 13 22 1006.8 1005.2 0.0
04/07:30pm 12.9 7.0 7.4 69 2.8 N 28 48 15 26 1006.8 1005.2 0.0
04/07:00pm 13.8 7.8 7.1 64 3.5 N 28 46 15 25 1007.1 1005.5 0.0
04/06:56pm 13.9 7.8 6.7 62 3.7 N 28 46 15 25 1007.2 1005.6 0.0
04/06:30pm 13.9 8.9 6.5 61 3.8 N 22 35 12 19 1007.7 1006.1 0.0
04/06:00pm 14.6 9.0 7.2 61 3.9 N 26 46 14 25 1008.2 1006.6 0.0
04/05:56pm 14.6 8.6 7.2 61 3.8 N 28 46 15 25 1008.2 1006.6 0.0
04/05:30pm 14.1 8.1 7.2 63 3.6 N 28 44 15 24 1008.3 1006.7 0.0
04/05:00pm 14.9 10.2 6.2 56 4.5 NNW 20 37 11 20 1008.5 1007.0 0.0
04/04:30pm 15.5 10.9 5.4 51 5.1 N 19 28 10 15 1009.0 1007.4 0.0
04/04:00pm 15.2 9.8 4.6 49 5.3 N 22 35 12 19 1009.5 1008.0 0.0
04/03:30pm 14.9 9.3 3.7 47 5.4 N 22 35 12 19 1009.8 1008.2 0.0
04/03:00pm 16.5 11.7 2.5 39 6.7 N 17 35 9 19 1010.2 1008.7 0.0
04/02:30pm 15.5 9.9 3.3 44 5.9 N 22 44 12 24 1010.8 1009.2 0.0
04/02:00pm 16.2 10.4 2.2 39 6.7 NNW 22 32 12 17 1011.2 1009.7 0.0
04/01:30pm 16.0 10.6 2.4 40 6.5 NNW 20 39 11 21 1011.5 1010.0 0.0
04/01:00pm 16.1 11.1 3.5 43 6.2 NNW 19 32 10 17 1011.9 1010.4 0.0
04/12:30pm 14.2 8.5 2.8 46 5.4 NNW 22 37 12 20 1012.2 1010.7 0.0
04/12:00pm 15.3 10.0 3.1 44 5.9 NNW 20 35 11 19 1012.4 1010.9 0.0
04/11:30am 14.2 8.3 1.5 42 5.9 NNW 22 32 12 17 1012.5 1011.0 0.0
04/11:00am 14.4 9.3 2.9 46 5.5 NW 19 28 10 15 1012.6 1011.2 0.0
04/10:30am 14.2 10.0 1.8 43 5.7 NW 13 22 7 12 1012.9 1011.4 0.0
04/10:00am 13.6 9.2 0.3 40 5.9 NW 13 24 7 13 1013.1 1011.6 0.0
04/09:30am 12.6 7.6 1.3 46 5.1 NNW 17 26 9 14 1013.1 1011.6 0.0
04/09:00am 12.3 8.3 2.7 52 4.5 NNW 13 24 7 13 1013.0 1011.5 0.0
04/08:30am 11.0 6.6 4.7 65 3.0 NE 17 22 9 12 1013.0 1011.5 0.0
04/08:00am 11.1 8.0 3.4 59 3.6 NNE 9 13 5 7 1012.9 1011.4 0.0
04/07:30am 10.1 6.7 2.0 57 3.6 N 9 17 5 9 1013.1 1011.6 0.0
04/07:00am 8.9 4.7 -0.9 50 4.1 NNW 11 17 6 9 1013.2 1011.7 0.0
04/06:30am 7.7 4.5 -0.8 55 3.5 WNW 6 17 3 9 1013.3 1011.8 0.0
04/06:00am 5.5 2.7 2.2 79 1.4 ESE 6 9 3 5 1013.1 1011.6 0.0
04/05:30am 5.5 1.6 1.2 74 1.8 N 11 22 6 12 1012.7 1011.3 0.0
04/05:00am 4.9 1.2 2.3 83 1.1 N 11 19 6 10 1012.4 1010.9 0.0
04/04:30am 4.2 0.9 2.4 88 0.8 NNE 9 15 5 8 1012.6 1011.2 0.0
04/04:00am 2.1 -1.3 1.7 97 0.2 NNE 9 17 5 9 1013.1 1011.6 0.0
04/03:30am 0.7 -2.9 0.6 99 0.0 NE 9 11 5 6 1013.2 1011.7 0.0
04/03:00am -0.2 -2.6 -0.6 97 0.1 N 2 7 1 4 1013.3 1011.8 0.0
04/02:30am 0.3 -2.0 0.2 99 0.0 NNE 2 6 1 3 1013.7 1012.3 0.0
04/02:00am 0.7 -2.5 0.6 99 0.0 N 7 9 4 5 1014.0 1012.5 0.0
04/01:30am 0.0 -3.8 -0.8 94 0.3 NNE 9 11 5 6 1014.4 1013.0 0.0
04/01:00am -0.1 -2.3 -1.4 91 0.5 CALM 0 0 0 0 1014.6 1013.2 0.0
04/12:30am 0.9 -1.9 -0.1 93 0.4 WNW 4 7 2 4 1015.0 1013.5 0.0
04/12:00am 2.0 -1.1 0.2 88 0.7 WNW 6 6 3 3 1015.1 1013.7 0.0
 
Date/Time
EDT
Temp
°C
App
Temp
°C
Dew
Point
°C
Rel
Hum
%
Delta-T
°C
Wind Press
QNH
hPa
Press
MSL
hPa
Rain since
9am
mm
Dir  Spd
km/h
Gust
km/h
Spd
kts
Gust
kts
03/11:30pm 2.7 0.9 1.1 89 0.7 CALM 0 0 0 0 1015.1 1013.7 0.0
03/11:00pm 2.7 0.8 0.8 87 0.8 CALM 0 0 0 0 1015.2 1013.8 0.0
03/10:30pm 4.0 0.2 1.9 86 0.9 W 11 11 6 6 1015.2 1013.8 0.0
03/10:00pm 4.4 1.3 1.6 82 1.2 W 7 9 4 5 1015.0 1013.5 0.0
03/09:30pm 4.7 1.6 1.6 80 1.3 WSW 7 9 4 5 1015.0 1013.5 0.0
03/09:00pm 6.0 3.6 1.9 75 1.8 S 4 9 2 5 1014.7 1013.3 0.0
03/08:30pm 7.8 4.2 2.7 70 2.3 S 11 13 6 7 1014.4 1013.0 0.0
03/08:00pm 10.3 5.6 3.3 62 3.2 SSW 17 22 9 12 1014.1 1012.6 0.0
03/07:30pm 12.4 7.8 1.7 48 4.9 SW 15 20 8 11 1013.7 1012.3 0.0
03/07:00pm 13.5 9.3 1.5 44 5.5 WSW 13 20 7 11 1013.4 1012.0 0.0
03/06:30pm 14.2 9.3 1.8 43 5.7 W 17 22 9 12 1013.2 1011.7 0.0
03/06:00pm 14.0 9.4 1.6 43 5.7 W 15 22 8 12 1013.0 1011.5 0.0
03/05:30pm 14.2 8.9 1.8 43 5.7 W 19 26 10 14 1013.0 1011.5 0.0
03/05:00pm 15.0 9.9 3.2 45 5.7 WSW 19 26 10 14 1013.1 1011.6 0.0
03/04:30pm 14.8 9.5 1.7 41 6.1 W 19 28 10 15 1013.0 1011.5 0.0
03/04:00pm 15.6 11.0 3.7 45 5.8 WSW 17 26 9 14 1012.9 1011.4 0.0
03/03:30pm 14.5 10.1 5.0 53 4.7 W 17 32 9 17 1013.1 1011.6 0.0
03/03:00pm 12.7 8.5 3.9 55 4.2 NNW 15 26 8 14 1013.2 1011.7 0.0
03/02:30pm 13.6 8.7 4.2 53 4.6 NNW 19 35 10 19 1013.1 1011.6 0.0
03/02:00pm 14.5 9.8 5.0 53 4.7 NW 19 28 10 15 1013.2 1011.7 0.0
03/01:30pm 11.5 7.6 3.3 57 3.8 N 13 24 7 13 1013.2 1011.7 0.0
03/01:00pm 10.9 5.6 5.2 68 2.8 NE 22 28 12 15 1013.2 1011.7 0.0
03/12:30pm 11.7 6.7 3.7 58 3.8 NE 19 30 10 16 1013.3 1011.8 0.0
03/12:00pm 11.7 6.8 4.9 63 3.3 ENE 20 28 11 15 1013.3 1011.8 0.0
03/11:30am 13.0 8.7 5.2 59 3.8 WSW 17 24 9 13 1013.2 1011.7 0.0
03/11:00am 11.1 6.5 3.9 61 3.4 WSW 17 28 9 15 1013.4 1012.0 0.0
03/10:30am 10.9 6.9 4.8 66 2.9 WSW 15 20 8 11 1013.5 1012.1 0.0
03/10:00am 9.4 4.8 3.6 67 2.7 SW 17 28 9 15 1013.4 1012.0 0.0
03/09:30am 7.7 2.5 2.2 68 2.4 WSW 19 30 10 16 1013.2 1011.7 0.0
03/09:00am 8.0 3.3 3.1 71 2.2 WSW 17 22 9 12 1013.1 1011.6 0.0
03/08:30am 6.8 2.1 2.9 76 1.7 WSW 17 24 9 13 1013.1 1011.6 0.0
03/08:00am 5.2 0.0 2.7 84 1.1 WSW 19 24 10 13 1012.5 1011.0 0.0
03/07:30am 4.9 -1.3 2.1 82 1.2 WSW 24 33 13 18 1012.4 1010.9 0.0
03/07:00am 4.8 -0.6 2.7 86 0.9 WSW 20 28 11 15 1012.3 1010.8 0.0
03/06:30am 3.6 -0.6 1.5 86 0.9 W 13 17 7 9 1012.1 1010.6 0.0
03/06:00am 2.8 -1.2 0.5 85 0.9 W 11 15 6 8 1011.6 1010.1 0.0
03/05:30am 3.4 -2.1 0.8 83 1.1 WSW 19 26 10 14 1011.6 1010.1 0.0
03/05:00am 3.2 -2.5 0.6 83 1.1 WSW 20 26 11 14 1011.3 1009.8 0.0
03/04:30am 2.3 -2.1 0.5 88 0.7 W 13 19 7 10 1011.2 1009.7 0.0
03/04:00am 1.3 -3.2 -0.3 89 0.6 W 13 17 7 9 1011.2 1009.7 0.0
03/03:30am 1.8 -3.8 0.2 89 0.6 WSW 19 26 10 14 1011.1 1009.6 0.0
03/03:00am 2.4 -3.0 1.2 92 0.5 W 19 24 10 13 1011.1 1009.6 0.0
03/02:30am 2.9 -3.0 1.6 91 0.5 W 22 33 12 18 1011.1 1009.6 0.0
03/02:00am 2.5 -2.3 0.2 85 0.9 W 15 20 8 11 1011.1 1009.6 0.0
03/01:30am 2.5 -2.3 -0.1 83 1.0 W 15 22 8 12 1011.3 1009.8 0.0
03/01:00am 2.8 -2.0 0.2 83 1.0 WNW 15 22 8 12 1011.3 1009.8 0.0
03/12:30am 2.5 -2.0 -0.6 80 1.2 WNW 13 20 7 11 1011.5 1010.0 0.0
03/12:00am 1.0 -3.7 -1.7 82 1.1 WNW 13 17 7 9 1011.8 1010.3 0.0
 
Date/Time
EDT
Temp
°C
App
Temp
°C
Dew
Point
°C
Rel
Hum
%
Delta-T
°C
Wind Press
QNH
hPa
Press
MSL
hPa
Rain since
9am
mm
Dir  Spd
km/h
Gust
km/h
Spd
kts
Gust
kts
02/11:30pm 1.8 -2.9 -2.0 76 1.4 WNW 13 17 7 9 1011.6 1010.1 0.0
02/11:00pm 2.2 -3.7 -1.9 74 1.6 W 19 26 10 14 1011.4 1009.9 0.0
02/10:30pm 2.5 -3.0 -2.0 72 1.7 W 17 24 9 13 1011.4 1009.9 0.0
02/10:00pm 2.9 -2.9 -1.5 73 1.7 W 19 28 10 15 1011.3 1009.8 0.0
02/09:30pm 2.2 -1.5 -2.9 69 1.9 W 7 15 4 8 1011.0 1009.5 0.0
02/09:00pm 3.7 -2.3 -2.7 63 2.4 WSW 19 28 10 15 1010.6 1009.1 0.0
02/08:30pm 4.7 -2.1 -2.2 61 2.7 WSW 24 35 13 19 1010.1 1008.6 0.0
02/08:00pm 6.0 -2.4 -2.1 56 3.2 WSW 32 44 17 24 1009.6 1008.1 0.0
02/07:47pm 6.8 -0.9 -2.6 51 3.7 WSW 28 46 15 25 1009.5 1008.0 0.0
02/07:30pm 7.4 -1.0 -2.3 50 3.8 WSW 32 39 17 21 1009.2 1007.6 0.0
02/07:00pm 8.6 0.3 -1.8 48 4.2 WSW 32 44 17 24 1008.9 1007.3 0.0
02/06:30pm 9.5 1.2 -1.5 46 4.5 WSW 32 46 17 25 1008.5 1007.0 0.0
02/06:24pm 9.6 2.1 -1.7 45 4.6 WSW 28 46 15 25 1008.4 1006.9 0.0
02/06:00pm 10.2 2.0 -1.2 45 4.8 WSW 32 43 17 23 1008.3 1006.7 0.0
02/05:33pm 11.1 3.9 0.8 49 4.6 W 28 46 15 25 1008.1 1006.5 0.0
02/05:30pm 11.4 4.3 1.4 50 4.5 WSW 28 41 15 22 1008.0 1006.4 0.0
02/05:00pm 11.5 3.5 0.3 46 4.9 WSW 32 46 17 25 1007.8 1006.2 0.0
02/04:30pm 11.7 3.1 0.2 45 5.0 WSW 35 48 19 26 1007.7 1006.1 0.0
02/04:00pm 12.3 4.2 -0.6 41 5.6 WSW 32 44 17 24 1007.4 1005.8 0.0
02/03:30pm 13.1 5.9 0.5 42 5.6 WSW 28 52 15 28 1007.3 1005.7 0.0
02/03:06pm 13.3 6.1 1.0 43 5.6 WSW 28 48 15 26 1007.2 1005.6 0.0
02/03:00pm 13.4 6.2 0.4 41 5.8 WSW 28 43 15 23 1007.2 1005.6 0.0
02/02:30pm 13.4 6.2 0.8 42 5.7 W 28 43 15 23 1007.0 1005.4 0.0
02/02:00pm 13.0 6.0 1.7 46 5.2 WSW 28 43 15 23 1006.8 1005.2 0.0
02/01:39pm 13.1 5.1 1.8 46 5.2 WSW 33 52 18 28 1006.7 1005.0 0.0
02/01:30pm 12.8 3.8 0.2 42 5.6 WSW 37 48 20 26 1006.4 1004.8 0.0
02/01:17pm 12.7 4.6 -0.5 40 5.7 W 32 52 17 28 1006.3 1004.7 0.0
02/01:00pm 11.9 3.0 1.0 47 4.9 W 37 50 20 27 1006.2 1004.6 0.0
02/12:30pm 11.7 4.0 2.5 53 4.2 WSW 32 50 17 27 1006.0 1004.4 0.0
02/12:27pm 12.6 5.2 4.1 56 4.1 WSW 32 50 17 27 1006.0 1004.4 0.0
02/12:00pm 11.8 4.1 2.3 52 4.4 W 32 48 17 26 1006.0 1004.4 0.0
02/11:32am 11.0 3.1 1.0 50 4.4 W 32 50 17 27 1006.1 1004.5 0.0
02/11:30am 11.5 3.8 2.3 53 4.2 W 32 43 17 23 1006.1 1004.5 0.0
02/11:00am 11.1 3.6 4.6 64 3.1 WNW 33 50 18 27 1005.9 1004.2 0.0
02/10:38am 10.2 2.8 5.2 71 2.4 W 33 52 18 28 1005.9 1004.2 0.0
02/10:30am 9.9 1.3 4.9 71 2.4 W 39 52 21 28 1005.7 1004.0 0.0
02/10:00am 8.5 0.4 5.4 81 1.5 W 37 50 20 27 1005.4 1003.8 0.0
02/09:49am 9.5 2.6 7.3 86 1.1 W 33 52 18 28 1005.2 1003.6 0.0
02/09:30am 10.2 1.9 6.2 76 2.0 W 39 52 21 28 1004.9 1003.2 0.0
02/09:07am 10.4 1.3 5.8 73 2.3 W 43 61 23 33 1004.5 1002.9 0.0
02/09:00am 10.4 2.1 6.0 74 2.2 W 39 52 21 28 1004.5 1002.9 0.0
02/08:30am 9.3 0.5 5.5 77 1.8 W 41 59 22 32 1004.2 1002.5 0.0
02/08:00am 9.0 0.6 5.6 79 1.7 W 39 57 21 31 1003.7 1002.0 0.0
02/07:48am 8.7 2.3 5.4 80 1.6 W 28 46 15 25 1003.7 1002.0 0.0
02/07:30am 8.3 2.7 5.6 83 1.3 WNW 24 41 13 22 1003.6 1001.9 0.0
02/07:00am 6.3 1.1 5.3 93 0.5 W 22 32 12 17 1003.6 1001.9 0.0
02/06:30am 5.3 0.0 5.0 98 0.1 W 22 32 12 17 1003.3 1001.6 0.0
02/06:00am 4.0 -1.5 3.9 99 0.0 W 22 26 12 14 1003.2 1001.5 0.0
02/05:30am 3.4 -1.7 3.3 99 0.0 WNW 19 26 10 14 1003.2 1001.5 0.0
02/05:00am 2.4 -1.7 2.3 99 0.0 W 13 19 7 10 1003.0 1001.3 0.0
02/04:30am 2.0 -1.8 1.9 99 0.0 W 11 17 6 9 1003.0 1001.3 0.0
02/04:00am 1.2 -1.9 1.1 99 0.0 SSW 7 13 4 7 1002.8 1001.1 0.0
02/03:30am 2.0 -1.0 1.9 99 0.0 SW 7 13 4 7 1002.9 1001.2 0.0
02/03:00am 3.2 0.4 3.1 99 0.0 SW 7 13 4 7 1003.0 1001.3 0.0
02/02:30am 5.2 2.8 5.1 99 0.0 NNW 7 13 4 7 1003.1 1001.4 0.0
02/02:00am 4.0 1.9 3.9 99 0.0 WNW 4 9 2 5 1003.3 1001.6 0.0
02/01:30am 4.6 3.0 4.5 99 0.0 SW 2 9 1 5 1003.8 1002.1 0.0
02/01:00am 6.1 4.4 6.0 99 0.0 SSW 4 7 2 4 1004.0 1002.3 0.0
02/12:30am 7.1 5.3 7.0 99 0.0 ENE 6 9 3 5 1004.1 1002.4 0.0
02/12:00am 7.7 6.9 6.6 93 0.5 CALM 0 6 0 3 1004.8 1003.1 0.0
 
Date/Time
EDT
Temp
°C
App
Temp
°C
Dew
Point
°C
Rel
Hum
%
Delta-T
°C
Wind Press
QNH
hPa
Press
MSL
hPa
Rain since
9am
mm
Dir  Spd
km/h
Gust
km/h
Spd
kts
Gust
kts
01/11:30pm 9.4 6.9 8.2 92 0.6 NNW 11 17 6 9 1004.9 1003.2 0.0

Other Formats:

Comma delimited format used in spreadsheet applications
http://www.bom.gov.au/fwo/IDT60801/IDT60801.95959.axf

JavaScript Object Notation format (JSON) in row-major order
http://www.bom.gov.au/fwo/IDT60801/IDT60801.95959.json